LDZU weather

CLOSED Udbina Air Base
Udbina, Lika-Senj County, Croatia

Public forecast

Using degrees Celsius for public forecast. Weather courtesy of forecast.io.

METAR (pilot weather report)

Closest report is Zadar Airport, 32.6 nm (60.4 km) SW. Retrieved 2019/05/20 23:30 UTC (26 minutes ago):

LDZD 202330Z 13006KT 9999 FEW070 12/11 Q1010

TAF (pilot weather forecast)

Closest forecast is Zadar Airport, 32.6 nm (60.4 km) SW. Retrieved 2019/05/20 18:27 UTC (5 hours ago):

TAF LDZD 201725Z 2018/2118 17006KT 9999 FEW040 TX18/2112Z TN11/2103Z PROB40 2105/2108 17008KT BECMG 2108/2110 22009KT PROB30 TEMPO 2109/2112 FEW033TCU BKN040 BECMG 2115/2117 17007KT